Time;durP1;ratioP1;P1;durP2;ratioP2;P2;SDS_P1;SDS_P2;PMS_P1;PMS_P2;Temp;Humidity;BMP_temperature;BMP_pressure;BME280_temperature;BME280_humidity;BME280_pressure;Samples;Min_cycle;Max_cycle;Signal;HPM_P1;HPM_P2
2021/05/31 00:00:53;;;;;;;;;;;;;;;23.75;48.73;101099.28;5029392;28;799;-72
2021/05/31 00:03:19;;;;;;;;;;;;;;;23.69;47.39;101101.31;5028078;28;1373;-72
2021/05/31 00:05:45;;;;;;;;;;;;;;;23.66;47.16;101101.94;5029190;28;890;-72
2021/05/31 00:08:10;;;;;;;;;;;;;;;23.68;48.12;101099.69;5029495;28;807;-73
2021/05/31 00:10:35;;;;;;;;;;;;;;;23.68;47.25;101094.19;5029351;28;1019;-72
2021/05/31 00:13:01;;;;;;;;;;;;;;;23.74;48.51;101097.63;5029267;28;882;-72
2021/05/31 00:15:27;;;;;;;;;;;;;;;23.73;48.72;101096.03;5029175;28;854;-73
2021/05/31 00:17:53;;;;;;;;;;;;;;;23.69;48.08;101098.56;5029854;28;1965;-72
2021/05/31 00:20:18;;;;;;;;;;;;;;;23.70;48.03;101091.13;5030783;28;3243;-72
2021/05/31 00:22:44;;;;;;;;;;;;;;;23.68;47.81;101098.88;5047954;28;875;-72
2021/05/31 00:25:10;;;;;;;;;;;;;;;23.71;48.39;101096.31;5047272;28;873;-73
2021/05/31 00:27:38;;;;;;;;;;;;;;;23.74;47.86;101092.13;5048551;28;876;-73
2021/05/31 00:30:04;;;;;;;;;;;;;;;23.70;48.50;101089.22;5048473;28;803;-72
2021/05/31 00:32:30;;;;;;;;;;;;;;;23.78;48.85;101087.69;5049057;28;1266;-72
2021/05/31 00:34:55;;;;;;;;;;;;;;;23.83;48.21;101092.28;5049138;28;886;-72
2021/05/31 00:37:20;;;;;;;;;;;;;;;23.80;49.23;101081.88;5048762;28;1882;-73
2021/05/31 00:39:46;;;;;;;;;;;;;;;23.80;49.21;101079.13;5049319;28;865;-72
2021/05/31 00:42:11;;;;;;;;;;;;;;;23.83;48.79;101079.34;5053030;28;941;-72
2021/05/31 00:44:37;;;;;;;;;;;;;;;23.78;49.18;101087.69;5052369;28;846;-72
2021/05/31 00:47:04;;;;;;;;;;;;;;;23.73;48.65;101087.78;5039901;28;2872;-72
2021/05/31 00:49:35;;;;;;;;;;;;;;;23.75;48.82;101082.78;5031181;28;913;-72
2021/05/31 00:52:00;;;;;;;;;;;;;;;23.69;47.64;101087.56;5031613;28;831;-72
2021/05/31 00:54:26;;;;;;;;;;;;;;;23.67;48.07;101083.50;5032412;28;903;-72
2021/05/31 00:56:51;;;;;;;;;;;;;;;23.66;48.21;101079.09;5032495;28;1364;-73
2021/05/31 00:59:16;;;;;;;;;;;;;;;23.65;47.94;101080.25;5031980;28;1964;-73
2021/05/31 01:01:42;;;;;;;;;;;;;;;23.70;48.03;101080.13;5032603;28;1214;-72
2021/05/31 01:04:07;;;;;;;;;;;;;;;23.65;47.67;101080.25;5032885;28;865;-73
2021/05/31 01:06:34;;;;;;;;;;;;;;;23.62;47.24;101084.41;5032632;28;839;-72
2021/05/31 01:09:09;;;;;;;;;;;;;;;23.62;47.99;101080.84;5032704;28;889;-72
2021/05/31 01:11:40;;;;;;;;;;;;;;;23.64;47.94;101076.69;5032492;28;807;-73
2021/05/31 01:14:11;;;;;;;;;;;;;;;23.62;47.25;101078.09;5031078;28;875;-72
2021/05/31 01:16:39;;;;;;;;;;;;;;;23.57;46.91;101075.47;5032538;28;878;-73
2021/05/31 01:19:11;;;;;;;;;;;;;;;23.58;47.58;101072.38;5032125;28;1962;-72
2021/05/31 01:21:57;;;;;;;;;;;;;;;23.56;47.20;101069.13;5032124;28;779;-72
2021/05/31 01:24:41;;;;;;;;;;;;;;;23.51;46.75;101067.31;5034982;28;1070;-72
2021/05/31 01:27:09;;;;;;;;;;;;;;;23.52;46.96;101066.19;5031628;28;819;-73
2021/05/31 01:29:34;;;;;;;;;;;;;;;23.54;47.18;101057.63;5032037;28;803;-73
2021/05/31 01:32:03;;;;;;;;;;;;;;;23.55;47.21;101053.75;5032165;28;786;-72
2021/05/31 01:34:31;;;;;;;;;;;;;;;23.57;47.89;101057.03;5031815;28;878;-72
2021/05/31 01:36:59;;;;;;;;;;;;;;;23.60;47.75;101055.59;5032184;28;823;-72
2021/05/31 01:39:26;;;;;;;;;;;;;;;23.56;47.13;101051.81;5032080;28;1874;-72
2021/05/31 01:41:52;;;;;;;;;;;;;;;23.57;47.58;101054.28;5031470;28;807;-72
2021/05/31 01:44:18;;;;;;;;;;;;;;;23.59;47.83;101053.97;5031777;28;898;-72
2021/05/31 01:46:44;;;;;;;;;;;;;;;23.58;47.85;101047.63;5032338;28;878;-73
2021/05/31 01:49:10;;;;;;;;;;;;;;;23.64;48.31;101043.69;5031386;28;838;-72
2021/05/31 01:51:37;;;;;;;;;;;;;;;23.64;47.85;101038.19;5031454;28;893;-73
2021/05/31 01:54:02;;;;;;;;;;;;;;;23.65;48.37;101036.25;5031674;28;869;-73
2021/05/31 01:56:28;;;;;;;;;;;;;;;23.69;48.53;101046.31;5031357;28;827;-72
2021/05/31 01:58:54;;;;;;;;;;;;;;;23.72;48.57;101042.97;5030897;28;1906;-73
2021/05/31 02:01:19;;;;;;;;;;;;;;;23.81;48.56;101054.06;5031610;28;803;-73
2021/05/31 02:03:45;;;;;;;;;;;;;;;23.81;48.30;101054.06;5031489;28;1381;-72
2021/05/31 02:06:10;;;;;;;;;;;;;;;23.81;48.65;101048.56;5031119;28;936;-72
2021/05/31 02:08:36;;;;;;;;;;;;;;;23.78;48.17;101040.91;5031483;28;809;-72
2021/05/31 02:11:06;;;;;;;;;;;;;;;23.70;48.49;101044.38;5031096;28;808;-70
2021/05/31 02:13:32;;;;;;;;;;;;;;;23.68;48.29;101047.44;5031008;28;866;-72
2021/05/31 02:16:04;;;;;;;;;;;;;;;23.76;48.65;101042.31;5031280;28;815;-72
2021/05/31 02:18:37;;;;;;;;;;;;;;;23.78;48.51;101043.66;5029981;28;1890;-73
2021/05/31 02:21:07;;;;;;;;;;;;;;;23.77;48.99;101043.97;5031242;28;785;-73
2021/05/31 02:23:33;;;;;;;;;;;;;;;23.78;49.02;101048.38;5031436;28;873;-73
2021/05/31 02:26:00;;;;;;;;;;;;;;;23.76;48.79;101045.88;5030946;28;771;-72
2021/05/31 02:28:26;;;;;;;;;;;;;;;23.76;48.86;101047.81;5031342;28;778;-73
2021/05/31 02:30:52;;;;;;;;;;;;;;;23.81;48.90;101050.50;5030953;28;887;-73
2021/05/31 02:33:17;;;;;;;;;;;;;;;23.67;48.35;101050.50;5031036;28;957;-72
2021/05/31 02:35:43;;;;;;;;;;;;;;;23.69;48.97;101043.56;5030551;28;919;-73
2021/05/31 02:38:08;;;;;;;;;;;;;;;23.77;48.91;101044.81;5030913;28;1878;-72
2021/05/31 02:40:34;;;;;;;;;;;;;;;23.76;48.88;101056.88;5030492;28;795;-72
2021/05/31 02:43:01;;;;;;;;;;;;;;;23.78;48.86;101045.59;5030622;28;783;-73
2021/05/31 02:45:29;;;;;;;;;;;;;;;23.73;49.32;101047.31;5030601;28;858;-72
2021/05/31 02:47:56;;;;;;;;;;;;;;;23.77;48.90;101044.81;5030149;28;1692;-72
2021/05/31 02:50:22;;;;;;;;;;;;;;;23.77;49.06;101049.47;5030297;28;893;-72
2021/05/31 02:52:47;;;;;;;;;;;;;;;23.78;49.05;101048.38;5030655;28;798;-72
2021/05/31 02:55:14;;;;;;;;;;;;;;;23.75;48.98;101052.53;5030116;28;819;-72
2021/05/31 02:57:40;;;;;;;;;;;;;;;23.72;49.29;101045.72;5029973;28;1972;-72
2021/05/31 03:00:06;;;;;;;;;;;;;;;23.71;49.06;101052.31;5030462;28;920;-72
2021/05/31 03:02:32;;;;;;;;;;;;;;;23.66;48.34;101044.19;5030145;28;1331;-72
2021/05/31 03:04:57;;;;;;;;;;;;;;;23.69;48.34;101040.00;5030065;28;848;-72
2021/05/31 03:07:22;;;;;;;;;;;;;;;23.61;48.03;101043.47;5030282;28;822;-73
2021/05/31 03:09:47;;;;;;;;;;;;;;;23.69;48.76;101042.75;5029879;28;823;-72
2021/05/31 03:12:13;;;;;;;;;;;;;;;23.72;49.24;101036.63;5030136;28;890;-72
2021/05/31 03:14:38;;;;;;;;;;;;;;;23.75;48.93;101035.22;5030685;28;880;-73
2021/05/31 03:17:04;;;;;;;;;;;;;;;23.71;48.91;101041.31;5029582;28;1064;-72
2021/05/31 03:19:29;;;;;;;;;;;;;;;23.51;46.27;101039.00;5029097;28;1882;-72
2021/05/31 03:21:54;;;;;;;;;;;;;;;23.43;45.82;101035.03;5029497;28;1103;-72
2021/05/31 03:24:19;;;;;;;;;;;;;;;23.48;45.81;101034.09;5029154;28;1381;-73
2021/05/31 03:26:45;;;;;;;;;;;;;;;23.44;46.13;101041.34;5028923;28;1222;-72
2021/05/31 03:29:10;;;;;;;;;;;;;;;23.43;46.92;101032.28;5028994;28;1420;-72
2021/05/31 03:31:35;;;;;;;;;;;;;;;23.41;46.70;101042.78;5029735;28;1036;-73
2021/05/31 03:34:01;;;;;;;;;;;;;;;23.40;46.98;101035.66;5029676;28;882;-72
2021/05/31 03:36:26;;;;;;;;;;;;;;;23.38;47.02;101026.91;5029620;28;1107;-73
2021/05/31 03:38:51;;;;;;;;;;;;;;;23.39;47.48;101020.28;5029504;28;1940;-73
2021/05/31 03:41:17;;;;;;;;;;;;;;;23.42;47.25;101018.84;5029135;28;1075;-73
2021/05/31 03:43:42;;;;;;;;;;;;;;;23.43;47.36;101026.78;5031923;28;1107;-72
2021/05/31 03:46:07;;;;;;;;;;;;;;;23.38;47.25;101012.31;5026444;28;1261;-73
2021/05/31 03:48:32;;;;;;;;;;;;;;;23.45;47.76;101021.78;5028789;28;1324;-73
2021/05/31 03:51:08;;;;;;;;;;;;;;;23.46;47.78;101022.59;5029337;28;1387;-73
2021/05/31 03:53:38;;;;;;;;;;;;;;;23.45;47.64;101016.28;5028683;28;1238;-73
2021/05/31 03:56:04;;;;;;;;;;;;;;;23.55;47.78;101023.53;5029107;28;1100;-72
2021/05/31 03:58:30;;;;;;;;;;;;;;;23.51;47.87;101022.50;5028124;28;1922;-72
2021/05/31 04:00:55;;;;;;;;;;;;;;;23.50;48.18;101024.44;5029433;28;991;-72
2021/05/31 04:03:20;;;;;;;;;;;;;;;23.52;47.98;101024.97;5029253;28;1320;-72
2021/05/31 04:06:00;;;;;;;;;;;;;;;23.53;47.72;101012.81;5029912;28;1098;-72
2021/05/31 04:13:53;;;;;;;;;;;;;;;23.45;48.26;101013.53;5030137;28;884;-72
2021/05/31 04:16:18;;;;;;;;;;;;;;;23.42;48.53;101010.59;5033402;28;851;-72
2021/05/31 04:18:43;;;;;;;;;;;;;;;23.44;48.64;101011.09;5033293;28;1947;-72
2021/05/31 04:21:09;;;;;;;;;;;;;;;23.34;47.59;101023.13;5032085;28;1482;-79
2021/05/31 04:23:34;;;;;;;;;;;;;;;23.29;49.17;101024.03;5031604;28;838;-72
2021/05/31 04:25:59;;;;;;;;;;;;;;;23.41;47.92;101029.03;5031308;28;878;-72
2021/05/31 04:28:25;;;;;;;;;;;;;;;23.23;46.84;101028.00;5031723;28;791;-72
2021/05/31 04:30:50;;;;;;;;;;;;;;;23.16;46.81;101026.78;5031413;28;798;-72
2021/05/31 04:33:15;;;;;;;;;;;;;;;23.15;46.79;101025.16;5031102;28;933;-72
2021/05/31 04:35:40;;;;;;;;;;;;;;;23.06;46.27;101023.13;5031403;28;795;-72
2021/05/31 04:38:06;;;;;;;;;;;;;;;23.02;46.45;101024.03;5032501;28;1879;-72
2021/05/31 04:40:31;;;;;;;;;;;;;;;22.99;46.47;101030.09;5033154;28;854;-72
2021/05/31 04:42:56;;;;;;;;;;;;;;;23.00;46.15;101032.56;5033069;28;923;-72
2021/05/31 04:45:22;;;;;;;;;;;;;;;23.00;46.18;101031.72;5032867;28;894;-72
2021/05/31 04:47:47;;;;;;;;;;;;;;;23.02;46.33;101033.09;5032559;28;783;-72
2021/05/31 04:50:12;;;;;;;;;;;;;;;22.96;46.63;101033.44;5032905;28;839;-72
2021/05/31 04:52:38;;;;;;;;;;;;;;;22.97;46.29;101022.16;5033176;28;1263;-72
2021/05/31 04:55:03;;;;;;;;;;;;;;;22.95;46.03;101021.66;5032590;28;835;-72
2021/05/31 04:57:29;;;;;;;;;;;;;;;22.96;46.21;101027.94;5032459;28;1906;-72
2021/05/31 04:59:55;;;;;;;;;;;;;;;22.93;46.33;101030.19;5032616;28;830;-72
2021/05/31 05:02:20;;;;;;;;;;;;;;;22.91;46.02;101032.44;5031108;28;1367;-72
2021/05/31 05:04:45;;;;;;;;;;;;;;;22.87;45.76;101031.41;5032526;28;859;-72
2021/05/31 05:07:12;;;;;;;;;;;;;;;22.89;46.05;101033.84;5032495;28;806;-72
2021/05/31 05:09:38;;;;;;;;;;;;;;;22.87;45.85;101045.13;5032252;28;799;-72
2021/05/31 05:12:03;;;;;;;;;;;;;;;22.91;46.10;101039.84;5032541;28;827;-72
2021/05/31 05:14:29;;;;;;;;;;;;;;;22.87;46.50;101036.91;5032347;28;1099;-72
2021/05/31 05:16:54;;;;;;;;;;;;;;;22.90;46.23;101043.75;5032400;28;913;-73
2021/05/31 05:19:19;;;;;;;;;;;;;;;22.86;45.96;101049.00;5032073;28;1871;-72
2021/05/31 05:21:45;;;;;;;;;;;;;;;22.85;46.24;101039.13;5032336;28;1259;-72
2021/05/31 05:24:12;;;;;;;;;;;;;;;22.84;45.95;101054.00;5032115;28;882;-72
2021/05/31 05:26:37;;;;;;;;;;;;;;;22.81;45.76;101051.84;5031651;28;846;-72
2021/05/31 05:29:02;;;;;;;;;;;;;;;22.82;46.02;101055.38;5032359;28;795;-72
2021/05/31 05:31:28;;;;;;;;;;;;;;;22.84;46.29;101054.00;5031711;28;909;-72
2021/05/31 05:33:54;;;;;;;;;;;;;;;22.85;45.58;101052.88;5031884;28;830;-72
2021/05/31 05:36:33;;;;;;;;;;;;;;;22.87;46.44;101049.81;5032115;28;819;-72
2021/05/31 05:39:55;;;;;;;;;;;;;;;22.84;46.25;101053.16;5031726;28;1855;-72
2021/05/31 05:49:39;;;;;;;;;;;;;;;22.79;46.31;101036.78;5031810;28;865;-72
2021/05/31 05:52:04;;;;;;;;;;;;;;;22.78;46.60;101041.47;5031706;28;897;-72
2021/05/31 05:54:30;;;;;;;;;;;;;;;22.77;46.29;101039.81;5031178;28;1126;-72
2021/05/31 05:56:55;;;;;;;;;;;;;;;22.71;46.69;101033.59;5031425;28;1142;-72
2021/05/31 05:59:20;;;;;;;;;;;;;;;22.71;46.42;101033.59;5030409;28;1906;-72
2021/05/31 06:01:46;;;;;;;;;;;;;;;22.73;46.46;101036.06;5031152;28;1292;-72
2021/05/31 06:04:11;;;;;;;;;;;;;;;22.76;46.61;101032.72;5031343;28;922;-72
2021/05/31 06:06:36;;;;;;;;;;;;;;;22.72;46.34;101032.50;5046971;28;1381;-72
2021/05/31 06:09:02;;;;;;;;;;;;;;;22.70;46.32;101033.94;5031133;28;894;-72
2021/05/31 06:11:28;;;;;;;;;;;;;;;22.66;46.52;101030.97;5031272;28;881;-72
2021/05/31 06:13:53;;;;;;;;;;;;;;;22.65;46.43;101037.56;5031452;28;807;-72
2021/05/31 06:16:19;;;;;;;;;;;;;;;22.64;46.53;101040.63;5031364;28;862;-72
2021/05/31 06:18:45;;;;;;;;;;;;;;;22.65;46.53;101029.31;5031102;28;1914;-72
2021/05/31 06:21:10;;;;;;;;;;;;;;;22.66;46.48;101032.91;5031739;28;810;-72
2021/05/31 06:23:36;;;;;;;;;;;;;;;22.67;46.45;101035.31;5030826;28;803;-72
2021/05/31 06:26:01;;;;;;;;;;;;;;;22.62;46.38;101031.88;5031258;28;870;-72
2021/05/31 06:28:26;;;;;;;;;;;;;;;22.62;46.36;101040.13;5031208;28;876;-72
2021/05/31 06:33:36;;;;;;;;;;;;;;;22.65;46.56;101042.25;5031180;28;760;-72
2021/05/31 06:36:06;;;;;;;;;;;;;;;22.65;46.91;101040.31;5030913;28;837;-72
2021/05/31 06:38:32;;;;;;;;;;;;;;;22.65;47.04;101037.56;5029860;28;1925;-73
2021/05/31 06:40:57;;;;;;;;;;;;;;;22.65;46.95;101048.53;5031003;28;826;-72
2021/05/31 06:43:22;;;;;;;;;;;;;;;22.64;47.15;101043.38;5030928;28;798;-72
2021/05/31 06:45:48;;;;;;;;;;;;;;;22.63;47.15;101036.25;5030212;28;901;-72
2021/05/31 06:48:13;;;;;;;;;;;;;;;22.60;47.92;101040.41;5046159;28;1359;-72
2021/05/31 06:50:38;;;;;;;;;;;;;;;22.63;47.58;101039.78;5030693;28;862;-72
2021/05/31 06:53:04;;;;;;;;;;;;;;;22.66;47.75;101041.94;5030531;28;969;-73
2021/05/31 06:55:30;;;;;;;;;;;;;;;22.65;48.06;101045.00;5030641;28;807;-72
2021/05/31 06:57:56;;;;;;;;;;;;;;;22.67;47.83;101042.75;5029209;28;1910;-72
2021/05/31 07:00:22;;;;;;;;;;;;;;;22.67;48.20;101046.31;5029971;28;828;-72
2021/05/31 07:02:48;;;;;;;;;;;;;;;22.64;48.70;101040.63;5029682;28;1495;-72
2021/05/31 07:05:13;;;;;;;;;;;;;;;22.71;48.22;101052.81;5030199;28;834;-72
2021/05/31 07:07:39;;;;;;;;;;;;;;;22.68;48.14;101047.94;5029993;28;815;-72
2021/05/31 07:10:05;;;;;;;;;;;;;;;22.65;48.06;101045.00;5030396;28;901;-72
2021/05/31 07:12:30;;;;;;;;;;;;;;;22.66;47.89;101054.88;5030380;28;814;-72
2021/05/31 07:14:56;;;;;;;;;;;;;;;22.73;48.15;101055.28;5029669;28;870;-72
2021/05/31 07:17:22;;;;;;;;;;;;;;;22.70;48.18;101044.91;5030276;28;877;-72
2021/05/31 07:19:47;;;;;;;;;;;;;;;22.71;48.08;101050.09;5029787;28;1931;-72
2021/05/31 07:22:23;;;;;;;;;;;;;;;22.66;48.23;101058.41;5029912;28;883;-72
2021/05/31 07:24:48;;;;;;;;;;;;;;;22.67;48.29;101049.06;5030041;28;834;-72
2021/05/31 07:27:14;;;;;;;;;;;;;;;22.70;48.07;101050.41;5029726;28;858;-72
2021/05/31 07:29:39;;;;;;;;;;;;;;;22.72;48.18;101053.66;5028997;28;898;-72
2021/05/31 07:32:05;;;;;;;;;;;;;;;22.68;48.12;101055.38;5029919;28;858;-72
2021/05/31 07:34:30;;;;;;;;;;;;;;;22.64;48.35;101048.88;5029956;28;854;-73
2021/05/31 07:36:56;;;;;;;;;;;;;;;22.68;48.31;101044.41;5029809;28;870;-72
2021/05/31 07:39:21;;;;;;;;;;;;;;;22.69;47.99;101041.31;5029530;28;1929;-72
2021/05/31 07:41:46;;;;;;;;;;;;;;;22.65;47.87;101045.00;5029839;28;811;-72
2021/05/31 07:44:12;;;;;;;;;;;;;;;22.68;47.84;101049.88;5029930;28;822;-72
2021/05/31 07:46:37;;;;;;;;;;;;;;;22.68;47.82;101044.41;5029587;28;831;-72
2021/05/31 07:49:02;;;;;;;;;;;;;;;22.71;47.80;101043.78;5029538;28;885;-72
2021/05/31 07:51:28;;;;;;;;;;;;;;;22.73;47.77;101045.09;5029853;28;882;-72
2021/05/31 07:53:55;;;;;;;;;;;;;;;22.70;47.54;101047.66;5029682;28;765;-73
2021/05/31 07:56:22;;;;;;;;;;;;;;;22.67;47.71;101048.25;5029644;28;882;-72
2021/05/31 07:58:47;;;;;;;;;;;;;;;22.66;47.95;101055.69;5029022;28;1915;-72
2021/05/31 08:01:14;;;;;;;;;;;;;;;22.68;47.43;101049.88;5029004;28;1061;-73
2021/05/31 08:03:41;;;;;;;;;;;;;;;22.66;47.69;101041.94;5027357;28;1607;-72
2021/05/31 08:06:06;;;;;;;;;;;;;;;22.66;47.62;101052.94;5026772;28;1588;-73
2021/05/31 08:08:32;;;;;;;;;;;;;;;22.67;47.51;101042.75;5028381;28;1540;-72
2021/05/31 08:10:57;;;;;;;;;;;;;;;22.64;47.59;101046.13;5028963;28;1575;-72
2021/05/31 08:13:23;;;;;;;;;;;;;;;22.67;47.75;101051.81;5028619;28;1753;-73
2021/05/31 08:15:49;;;;;;;;;;;;;;;22.70;47.73;101047.66;5028379;28;1607;-72
2021/05/31 08:18:14;;;;;;;;;;;;;;;22.70;47.36;101042.97;5028882;28;1918;-72
2021/05/31 08:20:40;;;;;;;;;;;;;;;22.68;47.76;101049.88;5028577;28;1592;-72
2021/05/31 08:23:05;;;;;;;;;;;;;;;22.69;47.57;101054.25;5024732;28;802;-73
2021/05/31 08:25:31;;;;;;;;;;;;;;;22.73;47.95;101053.34;5029431;28;919;-73
2021/05/31 08:27:57;;;;;;;;;;;;;;;22.70;47.85;101053.97;5028642;28;1524;-73
2021/05/31 08:30:22;;;;;;;;;;;;;;;22.64;47.82;101052.41;5028488;28;1511;-73
2021/05/31 08:32:47;;;;;;;;;;;;;;;22.63;47.58;101059.00;5029410;28;905;-72
2021/05/31 08:35:13;;;;;;;;;;;;;;;22.62;47.91;101053.84;5028742;28;1673;-72
2021/05/31 08:37:38;;;;;;;;;;;;;;;22.63;47.66;101070.00;5028390;28;1878;-72
2021/05/31 08:40:04;;;;;;;;;;;;;;;22.61;47.83;101066.72;5028496;28;1475;-73
2021/05/31 08:42:30;;;;;;;;;;;;;;;22.64;48.19;101062.59;5028415;28;1509;-72
2021/05/31 08:44:55;;;;;;;;;;;;;;;22.63;47.54;101064.50;5028724;28;934;-72
2021/05/31 08:47:22;;;;;;;;;;;;;;;22.66;47.64;101058.41;5028477;28;1848;-73
2021/05/31 08:49:49;;;;;;;;;;;;;;;22.69;47.80;101059.75;5013117;28;1681;-73
2021/05/31 08:52:14;;;;;;;;;;;;;;;22.69;47.63;101062.50;5028759;28;914;-72
2021/05/31 08:54:39;;;;;;;;;;;;;;;22.68;47.74;101060.88;5028416;28;1740;-72
2021/05/31 08:57:05;;;;;;;;;;;;;;;22.72;47.66;101062.72;5028338;28;1735;-72
2021/05/31 08:59:30;;;;;;;;;;;;;;;22.77;47.62;101067.28;5026532;28;1973;-72
2021/05/31 09:01:55;;;;;;;;;;;;;;;22.70;48.05;101058.66;5030967;28;1248;-72
2021/05/31 09:04:21;;;;;;;;;;;;;;;22.69;47.58;101065.22;5031530;28;1729;-72
2021/05/31 09:06:56;;;;;;;;;;;;;;;22.70;47.73;101061.38;5031924;28;1520;-72
2021/05/31 09:09:36;;;;;;;;;;;;;;;22.71;47.56;101063.00;5043745;28;1643;-72
2021/05/31 09:12:05;;;;;;;;;;;;;;;22.70;47.07;101067.69;5029818;28;1445;-72
2021/05/31 09:14:30;;;;;;;;;;;;;;;22.72;47.25;101061.91;5030856;28;1601;-72
2021/05/31 09:16:56;;;;;;;;;;;;;;;22.69;46.97;101068.78;5031423;28;1552;-72
2021/05/31 09:19:21;;;;;;;;;;;;;;;22.69;46.82;101073.47;5031948;28;1878;-72
2021/05/31 09:21:46;;;;;;;;;;;;;;;22.66;47.01;101063.09;5031664;28;1681;-72
2021/05/31 09:24:12;;;;;;;;;;;;;;;22.68;47.33;101067.19;5032337;28;873;-72
2021/05/31 09:26:48;;;;;;;;;;;;;;;22.69;47.83;101070.72;5030191;28;1223;-72
2021/05/31 09:29:14;;;;;;;;;;;;;;;22.72;46.87;101067.41;5030634;28;1391;-72
2021/05/31 09:31:40;;;;;;;;;;;;;;;22.70;47.44;101073.19;5030708;28;1643;-72
2021/05/31 09:34:09;;;;;;;;;;;;;;;22.71;47.11;101072.06;5029861;28;1624;-72
2021/05/31 09:36:47;;;;;;;;;;;;;;;22.70;47.27;101064.13;5017673;28;1223;-72
2021/05/31 09:39:12;;;;;;;;;;;;;;;22.77;47.46;101072.78;5031216;28;1935;-72
2021/05/31 09:41:37;;;;;;;;;;;;;;;22.79;47.38;101069.75;5031562;28;812;-72
2021/05/31 09:44:04;;;;;;;;;;;;;;;22.72;47.07;101068.19;5031735;28;811;-72
2021/05/31 09:46:47;;;;;;;;;;;;;;;22.71;46.92;101065.75;5032191;28;858;-72
2021/05/31 09:49:17;;;;;;;;;;;;;;;22.70;47.46;101069.63;5031875;28;861;-72
2021/05/31 09:52:08;;;;;;;;;;;;;;;22.66;46.95;101063.91;5031345;28;937;-72
2021/05/31 09:54:39;;;;;;;;;;;;;;;22.64;47.51;101068.09;5030996;28;956;-72
2021/05/31 09:57:16;;;;;;;;;;;;;;;22.64;47.18;101070.81;5031745;28;1204;-72
2021/05/31 10:00:11;;;;;;;;;;;;;;;22.61;46.99;101066.72;5031257;28;1971;-72
2021/05/31 10:03:04;;;;;;;;;;;;;;;22.64;47.27;101071.63;5031307;28;1319;-72
2021/05/31 10:10:20;;;;;;;;;;;;;;;22.61;47.68;101074.97;5031213;28;844;-72
2021/05/31 10:12:47;;;;;;;;;;;;;;;22.57;47.83;101075.88;5029536;28;1438;-72
2021/05/31 10:15:13;;;;;;;;;;;;;;;22.61;47.33;101071.41;5031367;28;861;-72
2021/05/31 10:17:38;;;;;;;;;;;;;;;22.63;47.22;101066.44;5031376;28;1851;-72
2021/05/31 10:20:05;;;;;;;;;;;;;;;22.59;47.27;101071.72;5030253;28;1229;-72
2021/05/31 10:22:34;;;;;;;;;;;;;;;22.69;47.54;101068.78;5031216;28;790;-72
2021/05/31 10:25:00;;;;;;;;;;;;;;;22.70;47.92;101064.94;5030195;28;1560;-72
2021/05/31 10:27:29;;;;;;;;;;;;;;;22.69;47.61;101068.78;5027843;28;1671;-72
2021/05/31 10:29:54;;;;;;;;;;;;;;;22.62;47.65;101067.56;5053646;28;1489;-72
2021/05/31 10:32:20;;;;;;;;;;;;;;;22.59;47.68;101066.22;5031114;28;875;-72
2021/05/31 10:34:47;;;;;;;;;;;;;;;22.69;47.43;101067.97;5030972;28;933;-72
2021/05/31 10:37:16;;;;;;;;;;;;;;;22.65;47.77;101065.00;5030849;28;786;-72
2021/05/31 10:39:41;;;;;;;;;;;;;;;22.54;47.28;101069.88;5030375;28;1874;-72
2021/05/31 10:42:08;;;;;;;;;;;;;;;22.55;47.53;101070.69;5030768;28;799;-72
2021/05/31 10:44:33;;;;;;;;;;;;;;;22.56;47.31;101068.75;5030904;28;862;-72
2021/05/31 10:47:11;;;;;;;;;;;;;;;22.51;47.39;101062.22;5030830;28;877;-72
2021/05/31 10:49:36;;;;;;;;;;;;;;;22.54;47.23;101061.63;5029142;28;1503;-72
2021/05/31 10:52:01;;;;;;;;;;;;;;;;;;5030510;28;865;-72
2021/05/31 10:54:33;;;;;;;;;;;;;;;22.43;47.64;101056.59;5030173;28;858;-72
2021/05/31 10:57:09;;;;;;;;;;;;;;;22.47;47.74;101061.19;5029099;28;1352;-72
2021/05/31 10:59:45;;;;;;;;;;;;;;;22.51;47.90;101058.66;5031263;28;1914;-72
2021/05/31 11:02:20;;;;;;;;;;;;;;;22.57;47.94;101056.66;5031041;28;1689;-72
2021/05/31 11:04:45;;;;;;;;;;;;;;;22.69;48.21;101055.06;5030974;28;938;-72
2021/05/31 11:07:11;;;;;;;;;;;;;;;22.76;48.12;101053.84;5030909;28;831;-73
2021/05/31 11:09:36;;;;;;;;;;;;;;;22.84;48.26;101047.66;5031545;28;866;-72
2021/05/31 11:12:05;;;;;;;;;;;;;;;22.83;48.54;101051.53;5028947;28;1948;-72
2021/05/31 11:14:33;;;;;;;;;;;;;;;22.92;48.78;101047.00;5031395;28;1013;-73
2021/05/31 11:17:09;;;;;;;;;;;;;;;22.93;48.61;101052.16;5030851;28;897;-73
2021/05/31 11:19:40;;;;;;;;;;;;;;;22.96;48.85;101048.03;5030625;28;1985;-72
2021/05/31 11:22:25;;;;;;;;;;;;;;;22.98;48.58;101042.19;5030219;28;1172;-72
2021/05/31 11:24:53;;;;;;;;;;;;;;;22.85;48.75;101036.38;5029547;28;874;-72
2021/05/31 11:27:25;;;;;;;;;;;;;;;22.84;48.53;101029.28;5029689;28;940;-72
2021/05/31 11:29:51;;;;;;;;;;;;;;;22.84;49.06;101025.69;5029435;28;979;-73
2021/05/31 11:32:17;;;;;;;;;;;;;;;22.88;48.76;101022.06;5030289;28;775;-73
2021/05/31 11:34:51;;;;;;;;;;;;;;;22.88;49.07;101030.31;5029668;28;1112;-72
2021/05/31 11:37:20;;;;;;;;;;;;;;;22.91;49.02;101031.63;5029333;28;1433;-73
2021/05/31 11:39:45;;;;;;;;;;;;;;;22.96;49.02;101028.78;5031427;28;1929;-72
2021/05/31 11:42:12;;;;;;;;;;;;;;;22.96;48.72;101030.69;5029559;28;877;-72
2021/05/31 11:44:38;;;;;;;;;;;;;;;22.92;49.33;101025.03;5030696;28;1393;-72
2021/05/31 11:47:04;;;;;;;;;;;;;;;22.96;49.15;101020.56;5028707;28;1290;-72
2021/05/31 11:49:30;;;;;;;;;;;;;;;23.03;49.35;101022.91;5029605;28;786;-73
2021/05/31 11:51:55;;;;;;;;;;;;;;;23.01;49.15;101019.63;5030008;28;855;-72
2021/05/31 11:54:21;;;;;;;;;;;;;;;22.97;49.33;101022.16;5027661;28;1420;-73
2021/05/31 11:56:47;;;;;;;;;;;;;;;23.03;49.27;101014.69;5029127;28;1060;-72
2021/05/31 11:59:14;;;;;;;;;;;;;;;22.97;49.23;101022.16;5029499;28;1962;-73
2021/05/31 12:01:40;;;;;;;;;;;;;;;22.88;49.30;101011.06;5029437;28;1295;-72
2021/05/31 12:04:05;;;;;;;;;;;;;;;22.97;49.32;101010.38;5029267;28;867;-72
2021/05/31 12:06:30;;;;;;;;;;;;;;;23.06;49.38;101014.88;5027562;28;1669;-73
2021/05/31 12:08:56;;;;;;;;;;;;;;;23.18;49.24;101008.06;5029350;28;866;-73
2021/05/31 12:11:21;;;;;;;;;;;;;;;23.15;49.03;101006.75;5024908;28;1472;-74
2021/05/31 12:13:47;;;;;;;;;;;;;;;23.29;50.40;101012.25;5027965;28;1668;-72
2021/05/31 12:16:14;;;;;;;;;;;;;;;23.29;50.15;101009.50;5027720;28;1223;-72
2021/05/31 12:18:39;;;;;;;;;;;;;;;23.25;50.27;101012.03;5023857;28;1937;-72
2021/05/31 12:21:04;;;;;;;;;;;;;;;23.15;50.31;101009.50;5028093;28;791;-72
2021/05/31 12:23:30;;;;;;;;;;;;;;;23.15;50.97;101009.50;5028462;28;849;-72
2021/05/31 12:25:59;;;;;;;;;;;;;;;23.30;51.95;101006.44;5027609;28;1645;-72
2021/05/31 12:28:28;;;;;;;;;;;;;;;23.33;52.47;101005.00;5026570;28;1703;-72
2021/05/31 12:30:54;;;;;;;;;;;;;;;23.34;53.51;101006.63;5026497;28;1558;-72
2021/05/31 12:33:19;;;;;;;;;;;;;;;23.30;53.29;101011.09;5027875;28;813;-72
2021/05/31 12:35:45;;;;;;;;;;;;;;;23.35;53.99;101007.47;5030013;28;791;-72
2021/05/31 12:38:11;;;;;;;;;;;;;;;23.35;54.09;101007.47;5031072;28;1871;-72
2021/05/31 12:40:38;;;;;;;;;;;;;;;23.33;54.68;101014.06;5029184;28;1801;-72
2021/05/31 12:43:04;;;;;;;;;;;;;;;23.32;54.47;101009.69;5031773;28;1699;-72
2021/05/31 12:45:30;;;;;;;;;;;;;;;23.36;55.97;101007.13;5028222;28;2683;-72
2021/05/31 12:47:55;;;;;;;;;;;;;;;23.37;56.45;101003.28;5031610;28;2612;-72
2021/05/31 12:50:35;;;;;;;;;;;;;;;23.37;56.58;100999.72;5025606;28;1489;-72
2021/05/31 12:53:05;;;;;;;;;;;;;;;23.47;57.03;101005.81;5036723;28;2529;-69
2021/05/31 12:55:31;;;;;;;;;;;;;;;23.53;55.57;101001.03;5042663;28;1137;-70
2021/05/31 12:57:57;;;;;;;;;;;;;;;23.52;55.92;100999.38;5027869;28;2321;-70
2021/05/31 13:00:23;;;;;;;;;;;;;;;23.50;55.50;100991.47;5027946;28;1689;-70
2021/05/31 13:02:49;;;;;;;;;;;;;;;23.47;55.95;101005.00;5029191;28;1506;-70
2021/05/31 13:05:16;;;;;;;;;;;;;;;23.46;55.67;100995.94;5025062;28;2363;-70
2021/05/31 13:07:48;;;;;;;;;;;;;;;23.46;56.12;100993.19;5030077;28;1400;-70
2021/05/31 13:10:15;;;;;;;;;;;;;;;23.50;55.89;100991.47;5029405;28;1454;-70
2021/05/31 13:12:48;;;;;;;;;;;;;;;23.48;55.30;100992.88;5029193;28;1459;-70